Rosepine, Louisiana
Current Conditions -  °F | °C
As of 11:55 AM on Thursday 30 Oct 2014 (Local Time) from KDRI Reporting Station
Clear Clear  
Wind Chill: 69°   Ceiling: Unl
Heat Index: 69°   Visibility: 10mi
Dew Point: 43°   Wind: 7mph
Humidity: 39%   Direction: 60°ENE
Pressure: 30.17"   Gusts: NA
Location:  30.92°N, 93.28°W
Report Text: KDRI 301655Z AUTO 06006KT 10SM CLR 21/06 A3017 RMK AO2 T02060063
Loading
Personal Weather Stations






























Interactive Weather Map
Tropical Storm Tracking
New forecast layout! Learn more

10-Day Weather Forecast

Advertisements
Track Severe Weather on mobile